Time;durP1;ratioP1;P1;durP2;ratioP2;P2;SDS_P1;SDS_P2;PMS_P1;PMS_P2;Temp;Humidity;BMP_temperature;BMP_pressure;BME280_temperature;BME280_humidity;BME280_pressure;Samples;Min_cycle;Max_cycle;Signal;HPM_P1;HPM_P2
2022/08/12 00:43:57;;;;;;;12.78;6.75;;;;;;;14.15;62.04;101303.12;1721922;80;20996;-77
2022/08/12 00:46:31;;;;;;;9.90;6.08;;;;;;;14.05;62.20;101297.95;1733551;80;21157;-77
2022/08/12 00:48:57;;;;;;;11.73;6.60;;;;;;;14.01;62.42;101304.66;1724103;80;21477;-77
2022/08/12 00:52:05;;;;;;;12.78;6.37;;;;;;;13.99;62.64;101302.66;1707082;80;21514;-77
2022/08/12 00:53:52;;;;;;;14.00;7.55;;;;;;;13.99;62.81;101306.19;1717803;79;21091;-77
2022/08/12 00:56:17;;;;;;;11.33;7.20;;;;;;;13.97;62.98;101301.97;1720948;80;20948;-77
2022/08/12 00:58:46;;;;;;;19.12;9.68;;;;;;;13.92;63.16;101294.96;1719407;80;20960;-76
2022/08/12 01:01:12;;;;;;;18.60;11.93;;;;;;;13.88;63.36;101294.96;1720538;80;21532;-77
2022/08/12 01:11:52;;;;;;;18.57;9.73;;;;;;;13.85;64.06;101295.30;1719210;80;21078;-76
2022/08/12 01:14:23;;;;;;;14.10;9.38;;;;;;;13.81;64.21;101297.98;1727634;80;21413;-76
2022/08/12 01:16:48;;;;;;;13.10;8.65;;;;;;;13.78;64.33;101292.97;1710575;80;21364;-76
2022/08/12 01:19:14;;;;;;;13.30;8.85;;;;;;;13.66;64.74;101290.27;1711291;80;21552;-76
2022/08/12 01:22:24;;;;;;;16.75;8.63;;;;;;;13.66;64.74;101290.27;1710421;80;21005;-76
2022/08/12 01:25:06;;;;;;;19.27;8.80;;;;;;;13.65;64.74;101284.60;1693463;80;21015;-76
2022/08/12 01:27:33;;;;;;;16.73;7.60;;;;;;;13.58;64.90;101291.64;1715800;80;21120;-77
2022/08/12 01:30:03;;;;;;;12.45;6.62;;;;;;;13.42;65.05;101277.72;1710128;80;21949;-77
2022/08/12 01:32:29;;;;;;;11.70;5.25;;;;;;;13.53;65.20;101291.28;1693221;80;20990;-76
2022/08/12 01:35:11;;;;;;;13.03;5.08;;;;;;;13.51;65.30;101289.60;1716101;80;21082;-76
2022/08/12 01:37:58;;;;;;;10.10;4.83;;;;;;;13.47;65.44;101288.25;1706037;80;21034;-76
2022/08/12 01:40:29;;;;;;;10.03;4.72;;;;;;;13.39;65.57;101285.59;1705990;80;21067;-76
2022/08/12 01:43:00;;;;;;;5.37;4.30;;;;;;;13.21;65.92;101267.48;1730824;80;21114;-76
2022/08/12 01:45:28;;;;;;;9.20;4.80;;;;;;;13.21;65.92;101267.48;1710116;80;20959;-76
2022/08/12 01:48:20;;;;;;;10.50;4.42;;;;;;;13.25;66.18;101282.23;1732937;80;21496;-76
2022/08/12 01:51:01;;;;;;;10.45;4.25;;;;;;;13.25;66.18;101282.23;1709318;80;21552;-76
2022/08/12 01:53:32;;;;;;;7.22;4.67;;;;;;;13.17;66.19;101278.19;1726102;80;21071;-76
2022/08/12 01:55:58;;;;;;;8.48;5.12;;;;;;;13.18;66.32;101282.55;1713959;80;22095;-76
2022/08/12 01:59:45;;;;;;;10.00;4.92;;;;;;;13.18;66.52;101292.42;1713254;80;21030;-76
2022/08/12 02:01:07;;;;;;;14.83;5.17;;;;;;;13.18;66.52;101292.42;1715588;80;21007;-76
2022/08/12 02:12:39;;;;;;;11.55;6.47;;;;;;;13.08;66.84;101284.52;1700063;82;21007;-77
2022/08/12 02:15:20;;;;;;;16.67;7.08;;;;;;;13.05;66.95;101288.87;1698558;82;21059;-76
2022/08/12 02:18:07;;;;;;;15.05;7.78;;;;;;;13.02;67.10;101281.98;1680264;82;21707;-76
2022/08/12 02:21:02;;;;;;;14.43;7.42;;;;;;;13.00;67.18;101285.83;1670056;82;21665;-76
2022/08/12 02:23:28;;;;;;;17.87;8.50;;;;;;;12.98;67.24;101289.19;1684010;83;21125;-75
2022/08/12 02:25:58;;;;;;;12.53;8.55;;;;;;;12.93;67.36;101286.15;1698582;82;20973;-76
2022/08/12 02:28:24;;;;;;;15.32;8.68;;;;;;;12.93;67.45;101279.45;1689638;82;21082;-76
2022/08/12 02:30:50;;;;;;;15.00;8.60;;;;;;;12.93;67.49;101282.13;1693581;81;21019;-76
2022/08/12 02:33:17;;;;;;;17.00;9.63;;;;;;;12.92;67.59;101283.12;1689914;81;21037;-76
2022/08/12 02:35:43;;;;;;;16.25;9.78;;;;;;;12.88;67.65;101291.14;1700946;81;21160;-76
2022/08/12 02:38:11;;;;;;;14.80;10.70;;;;;;;12.87;67.73;101295.68;1707614;82;21542;-76
2022/08/12 02:40:41;;;;;;;18.85;10.55;;;;;;;12.86;67.82;101297.17;1683182;82;21089;-76
2022/08/12 02:43:33;;;;;;;15.98;9.55;;;;;;;12.83;67.90;101297.50;1686542;82;21102;-76
2022/08/12 02:46:04;;;;;;;17.05;9.93;;;;;;;12.82;67.99;101295.81;1699741;82;20953;-76
2022/08/12 02:48:52;;;;;;;15.68;9.43;;;;;;;12.80;68.09;101296.48;1686137;81;21193;-76
2022/08/12 02:51:25;;;;;;;22.00;10.08;;;;;;;12.76;68.17;101297.81;1756738;80;22116;-76
2022/08/12 02:53:51;;;;;;;16.90;9.70;;;;;;;12.76;68.26;101295.13;1765389;80;21567;-76
2022/08/12 02:56:17;;;;;;;19.12;11.33;;;;;;;12.78;68.33;101294.45;1767345;80;21534;-76
2022/08/12 02:58:45;;;;;;;16.32;10.23;;;;;;;12.80;68.40;101289.80;1765792;79;21027;-76
2022/08/12 03:01:11;;;;;;;16.70;10.15;;;;;;;12.80;68.47;101281.77;1759422;80;21216;-76
2022/08/12 03:03:39;;;;;;;15.80;9.93;;;;;;;12.79;68.51;101284.94;1697442;82;21150;-76
2022/08/12 03:06:10;;;;;;;15.95;9.90;;;;;;;12.79;68.59;101280.08;1709398;80;21608;-76
2022/08/12 03:08:42;;;;;;;15.93;9.23;;;;;;;12.76;68.65;101280.41;1704365;80;21071;-76
2022/08/12 03:11:22;;;;;;;19.27;10.45;;;;;;;12.73;68.68;101279.41;1750804;79;21068;-76
2022/08/12 03:13:56;;;;;;;30.55;11.45;;;;;;;12.68;68.73;101275.02;1723743;80;21038;-76
2022/08/12 03:16:22;;;;;;;18.73;9.88;;;;;;;12.65;68.83;101286.90;1719106;79;21048;-75
2022/08/12 03:18:50;;;;;;;15.45;9.93;;;;;;;12.67;68.90;101281.36;1692298;80;21023;-75
2022/08/12 03:21:17;;;;;;;38.55;11.05;;;;;;;12.67;68.98;101273.34;1731617;79;21089;-76
2022/08/12 03:23:45;;;;;;;180.30;17.92;;;;;;;12.65;69.05;101274.86;1706384;80;21015;-75
2022/08/12 03:26:11;;;;;;;100.40;14.25;;;;;;;12.63;69.12;101279.52;1726845;78;21804;-75
2022/08/12 03:28:49;;;;;;;82.65;12.93;;;;;;;12.66;69.21;101281.05;1755858;79;21162;-76
2022/08/12 03:31:28;;;;;;;29.35;9.73;;;;;;;12.60;69.19;101289.20;1734905;79;21021;-75
2022/08/12 03:33:53;;;;;;;17.85;10.40;;;;;;;12.60;69.19;101289.20;1746063;79;21067;-76
2022/08/12 03:36:19;;;;;;;16.90;9.00;;;;;;;12.57;69.45;101295.38;1729951;79;21022;-76
2022/08/12 03:39:08;;;;;;;18.32;9.48;;;;;;;12.55;69.54;101286.69;1749644;80;21125;-76
2022/08/12 03:41:39;;;;;;;22.27;10.43;;;;;;;12.57;69.64;101295.38;1720916;79;21050;-76
2022/08/12 04:00:53;;;;;;;14.85;8.70;;;;;;;12.66;70.15;101282.39;1691635;82;20987;-76
2022/08/12 04:06:07;;;;;;;15.35;10.03;;;;;;;12.71;70.22;101284.06;1699975;80;21688;-75
2022/08/12 04:08:33;;;;;;;18.87;9.83;;;;;;;12.74;70.25;101282.39;1735873;80;21078;-75
2022/08/12 04:13:44;;;;;;;18.52;9.08;;;;;;;12.83;70.33;101275.59;1709153;80;21482;-76
2022/08/12 04:16:13;;;;;;;17.17;8.45;;;;;;;12.88;70.38;101271.91;1707429;80;21078;-76
2022/08/12 04:18:39;;;;;;;15.60;8.13;;;;;;;12.88;70.44;101273.73;1722284;80;21134;-76
2022/08/12 04:21:08;;;;;;;14.45;8.60;;;;;;;12.88;70.47;101279.09;1706284;80;21083;-76
2022/08/12 04:23:34;;;;;;;14.30;7.80;;;;;;;12.84;70.53;101277.77;1732703;80;21036;-75
2022/08/12 04:26:00;;;;;;;22.75;8.30;;;;;;;12.81;70.58;101286.94;1727317;80;21130;-75
2022/08/12 04:28:27;;;;;;;14.00;6.60;;;;;;;12.84;70.67;101285.80;1725478;80;21038;-75
2022/08/12 04:30:55;;;;;;;17.02;7.28;;;;;;;12.89;70.75;101287.47;1739302;80;21991;-76
2022/08/12 04:33:20;;;;;;;19.87;7.53;;;;;;;12.95;70.80;101282.79;1714068;80;21311;-75
2022/08/12 04:35:46;;;;;;;22.62;9.13;;;;;;;12.99;70.83;101287.66;1730192;80;20949;-75
2022/08/12 04:38:12;;;;;;;15.85;8.60;;;;;;;12.98;70.86;101297.22;1744222;80;21198;-75
2022/08/12 04:40:38;;;;;;;14.30;8.83;;;;;;;13.01;70.92;101296.39;1723024;80;21109;-75
2022/08/12 04:43:05;;;;;;;15.03;9.23;;;;;;;13.10;70.96;101296.42;1719489;80;21175;-76
2022/08/12 04:45:33;;;;;;;23.35;9.65;;;;;;;13.09;70.88;101283.53;1706089;80;21035;-76
2022/08/12 04:48:00;;;;;;;36.98;10.28;;;;;;;13.34;70.97;101297.30;1724264;80;21020;-76
2022/08/12 04:50:26;;;;;;;34.27;10.55;;;;;;;13.46;71.00;101306.70;1709617;80;20979;-76
2022/08/12 04:52:52;;;;;;;25.02;10.75;;;;;;;13.57;70.96;101306.88;1716214;80;21014;-76
2022/08/12 04:55:18;;;;;;;21.80;10.08;;;;;;;13.68;71.06;101301.69;1712806;80;22179;-76
2022/08/12 04:57:44;;;;;;;21.97;12.25;;;;;;;13.99;71.01;101302.66;1715851;79;21044;-76
2022/08/12 05:00:12;;;;;;;30.80;12.23;;;;;;;13.99;71.01;101302.66;1715806;80;20979;-76
2022/08/12 05:02:38;;;;;;;28.38;11.95;;;;;;;14.14;71.08;101311.70;1722479;81;21019;-76
2022/08/12 05:05:07;;;;;;;20.70;9.73;;;;;;;14.27;71.00;101313.84;1733023;80;21016;-76
2022/08/12 05:07:35;;;;;;;25.57;10.40;;;;;;;14.36;71.04;101318.19;1713830;80;22074;-76
2022/08/12 05:10:02;;;;;;;30.25;11.28;;;;;;;14.46;71.05;101315.64;1719846;80;21067;-76
2022/08/12 05:12:35;;;;;;;30.32;9.40;;;;;;;14.57;71.09;101318.97;1726660;80;20985;-76
2022/08/12 05:15:03;;;;;;;17.48;7.72;;;;;;;14.70;71.01;101317.93;1715337;81;21070;-76
2022/08/12 05:17:28;;;;;;;14.60;6.60;;;;;;;14.85;70.94;101320.19;1718758;80;21375;-76
2022/08/12 05:19:54;;;;;;;17.10;6.40;;;;;;;14.96;70.90;101315.27;1725230;80;22022;-76
2022/08/12 05:22:20;;;;;;;18.73;7.00;;;;;;;15.08;70.81;101319.75;1706848;80;21070;-77
2022/08/12 05:24:47;;;;;;;13.98;6.97;;;;;;;15.19;70.75;101315.33;1729058;80;21012;-77
2022/08/12 05:27:13;;;;;;;16.55;8.00;;;;;;;15.29;70.70;101319.96;1711828;80;21078;-77
2022/08/12 05:29:40;;;;;;;9.63;7.03;;;;;;;15.37;70.61;101327.98;1720736;80;21019;-77
2022/08/12 05:32:07;;;;;;;9.88;5.58;;;;;;;15.42;70.56;101341.70;1706953;80;21224;-77
2022/08/12 05:34:33;;;;;;;13.00;5.12;;;;;;;15.51;70.52;101336.31;1735301;80;21105;-76
2022/08/12 05:37:00;;;;;;;6.17;4.12;;;;;;;15.59;70.47;101333.55;1709971;80;21070;-76
2022/08/12 05:39:26;;;;;;;8.80;4.30;;;;;;;15.65;70.42;101336.88;1709612;80;21102;-76
2022/08/12 05:41:52;;;;;;;7.20;3.90;;;;;;;15.74;70.35;101332.59;1706726;80;20896;-76
2022/08/12 05:44:18;;;;;;;14.30;5.78;;;;;;;15.82;70.30;101331.70;1724918;81;21150;-77
2022/08/12 05:46:44;;;;;;;9.50;6.05;;;;;;;15.90;70.25;101323.56;1729800;79;20881;-77
2022/08/12 05:49:10;;;;;;;12.43;4.45;;;;;;;16.00;70.17;101320.11;1752918;79;21013;-77
2022/08/12 05:51:37;;;;;;;8.70;4.12;;;;;;;16.12;70.09;101319.97;1725288;79;20981;-76
2022/08/12 05:54:03;;;;;;;7.62;4.72;;;;;;;16.22;69.96;101320.53;1723190;81;21094;-76
2022/08/12 05:56:34;;;;;;;16.80;4.35;;;;;;;16.30;69.87;101320.45;1729191;80;21974;-76
2022/08/12 05:59:02;;;;;;;12.98;4.00;;;;;;;16.38;69.80;101316.84;1707842;80;20995;-76
2022/08/12 06:01:28;;;;;;;9.28;5.55;;;;;;;16.43;69.69;101307.18;1701990;80;22026;-76
2022/08/12 06:03:54;;;;;;;18.95;9.88;;;;;;;16.52;69.58;101315.17;1741544;80;21838;-76
2022/08/12 06:06:21;;;;;;;21.15;9.63;;;;;;;16.63;69.48;101313.39;1738509;81;21466;-76
2022/08/12 06:08:52;;;;;;;17.80;9.80;;;;;;;16.74;69.34;101312.42;1734852;80;22237;-76
2022/08/12 06:11:17;;;;;;;26.65;16.23;;;;;;;16.84;69.24;101315.65;1743725;80;21470;-76
2022/08/12 06:13:44;;;;;;;24.45;10.35;;;;;;;17.03;69.16;101316.09;1707292;81;21003;-76
2022/08/12 06:16:14;;;;;;;27.95;11.53;;;;;;;17.32;69.08;101315.47;1706830;81;21042;-75
2022/08/12 06:18:40;;;;;;;11.33;5.87;;;;;;;17.61;68.98;101310.50;1695264;82;21078;-76
2022/08/12 06:21:08;;;;;;;11.05;5.03;;;;;;;17.85;68.81;101302.51;1734720;81;21862;-76
2022/08/12 06:23:35;;;;;;;12.82;5.25;;;;;;;18.07;68.64;101306.84;1707086;80;21007;-76
2022/08/12 06:26:00;;;;;;;28.92;10.78;;;;;;;18.27;68.38;101306.45;1735623;80;21107;-77
2022/08/12 06:28:29;;;;;;;46.63;18.30;;;;;;;18.59;68.14;101292.02;1730138;80;21018;-77
2022/08/12 06:30:56;;;;;;;41.18;16.42;;;;;;;19.15;67.82;101273.20;1693875;80;21054;-77
2022/08/12 06:33:22;;;;;;;24.47;10.55;;;;;;;19.37;67.39;101277.42;1723200;81;21186;-77
2022/08/12 06:35:48;;;;;;;19.42;9.73;;;;;;;19.76;67.03;101278.52;1750269;79;20908;-77
2022/08/12 06:38:18;;;;;;;60.30;20.45;;;;;;;19.91;66.55;101268.31;1759111;80;21062;-78
2022/08/12 06:43:29;;;;;;;5.42;2.87;;;;;;;20.06;65.65;101264.00;1754979;79;20221;-77
2022/08/12 06:45:56;;;;;;;9.75;3.62;;;;;;;20.06;65.21;101266.19;1743478;79;21182;-77
2022/08/12 06:48:25;;;;;;;4.53;2.77;;;;;;;20.10;64.81;101267.44;1735995;80;20958;-77
2022/08/12 06:50:52;;;;;;;9.40;4.00;;;;;;;20.19;64.36;101271.61;1726124;80;21026;-77
2022/08/12 06:53:18;;;;;;;4.47;2.47;;;;;;;20.32;63.97;101260.77;1718980;79;21029;-77
2022/08/12 06:55:44;;;;;;;8.00;2.85;;;;;;;20.51;63.60;101261.77;1708234;79;21046;-77
2022/08/12 06:58:13;;;;;;;9.08;2.70;;;;;;;20.63;63.18;101269.52;1712881;80;21364;-77
2022/08/12 07:00:42;;;;;;;5.93;2.17;;;;;;;20.96;62.77;101261.23;1721035;79;21843;-77
2022/08/12 07:03:07;;;;;;;4.75;1.80;;;;;;;21.16;62.17;101266.05;1706712;80;21548;-79
2022/08/12 07:05:34;;;;;;;7.25;2.00;;;;;;;21.16;61.72;101268.77;1725786;80;21661;-77
2022/08/12 07:08:05;;;;;;;22.13;7.50;;;;;;;21.14;61.33;101264.09;1737838;80;21030;-76
2022/08/12 07:10:31;;;;;;;12.07;4.12;;;;;;;21.10;60.91;101271.48;1693805;82;21944;-76
2022/08/12 07:13:00;;;;;;;6.70;1.90;;;;;;;21.01;60.54;101268.19;1687556;83;21499;-76
2022/08/12 07:15:29;;;;;;;9.38;2.22;;;;;;;21.06;60.22;101265.67;1740753;80;21021;-76
2022/08/12 07:17:59;;;;;;;8.23;2.77;;;;;;;21.15;59.93;101267.09;1721853;80;21024;-76
2022/08/12 07:20:30;;;;;;;9.15;4.35;;;;;;;21.39;59.65;101266.86;1716023;80;21137;-76
2022/08/12 07:22:57;;;;;;;7.78;3.08;;;;;;;21.66;59.31;101264.23;1723411;80;21294;-76
2022/08/12 07:25:33;;;;;;;2.62;1.90;;;;;;;21.88;58.90;101263.33;1679601;83;21005;-76
2022/08/12 07:28:07;;;;;;;4.15;1.95;;;;;;;22.23;58.55;101265.83;1673868;82;20940;-76
2022/08/12 07:30:38;;;;;;;2.02;1.60;;;;;;;22.70;58.04;101266.13;1692565;82;21571;-76
2022/08/12 07:33:04;;;;;;;6.25;1.90;;;;;;;23.08;57.47;101261.22;1689899;82;21062;-77
2022/08/12 07:35:31;;;;;;;4.80;1.90;;;;;;;23.44;57.00;101261.67;1685390;82;22301;-77
2022/08/12 07:37:59;;;;;;;3.35;1.90;;;;;;;23.69;56.34;101250.58;1682807;82;20934;-77
2022/08/12 07:40:25;;;;;;;4.08;1.75;;;;;;;;;;1685160;83;21027;-77
2022/08/12 07:42:51;;;;;;;5.90;2.17;;;;;;;23.98;55.43;101248.29;1735196;80;21014;-77
2022/08/12 07:45:19;;;;;;;1.40;1.30;;;;;;;24.39;54.79;101251.41;1735057;80;20933;-77
2022/08/12 07:47:46;;;;;;;5.65;1.52;;;;;;;24.63;54.13;101248.12;1737232;81;21678;-77
2022/08/12 07:50:13;;;;;;;1.82;1.12;;;;;;;24.84;53.39;101247.45;1742724;80;21073;-78
2022/08/12 07:52:43;;;;;;;2.75;1.55;;;;;;;25.02;52.86;101244.53;1746603;80;21631;-78
2022/08/12 07:55:10;;;;;;;2.67;1.10;;;;;;;25.16;52.25;101254.08;1737168;80;21009;-77
2022/08/12 07:57:54;;;;;;;8.35;1.98;;;;;;;25.33;51.55;101245.38;1735928;81;21547;-77
2022/08/12 08:00:20;;;;;;;9.43;1.70;;;;;;;25.60;50.97;101244.78;1744633;80;21832;-78
2022/08/12 08:02:48;;;;;;;2.85;1.30;;;;;;;25.84;50.19;101253.09;1728581;81;21061;-77
2022/08/12 08:05:15;;;;;;;2.35;1.50;;;;;;;25.88;49.40;101244.69;1735971;80;20964;-73
2022/08/12 08:07:41;;;;;;;1.35;1.10;;;;;;;25.86;48.79;101241.39;1745044;80;21014;-73
2022/08/12 08:10:09;;;;;;;3.90;1.47;;;;;;;25.89;48.21;101238.68;1694725;82;21085;-73
2022/08/12 08:12:54;;;;;;;2.27;0.97;;;;;;;26.03;47.71;101237.25;1688144;82;21854;-79
2022/08/12 08:15:23;;;;;;;15.83;8.68;;;;;;;26.24;47.20;101233.22;1751281;80;21588;-74
2022/08/12 08:17:58;;;;;;;5.55;1.60;;;;;;;26.22;46.33;101244.94;1744392;80;21056;-77
2022/08/12 08:20:27;;;;;;;2.10;1.40;;;;;;;26.21;45.89;101232.33;1723348;81;21134;-77
2022/08/12 08:22:51;;;;;;;5.83;1.22;;;;;;;26.41;45.44;101235.89;1735902;81;22277;-78
2022/08/12 08:25:19;;;;;;;4.53;1.22;;;;;;;26.45;44.71;101239.78;1745559;80;22748;-78
2022/08/12 08:27:45;;;;;;;4.05;1.35;;;;;;;26.41;44.25;101235.06;1742647;79;20964;-78
2022/08/12 08:30:12;;;;;;;2.58;1.42;;;;;;;26.46;43.98;101226.94;1745884;80;20969;-77
2022/08/12 08:32:39;;;;;;;5.00;1.17;;;;;;;26.10;43.60;101231.06;1698614;81;21247;-78
2022/08/12 08:35:09;;;;;;;3.80;1.52;;;;;;;26.11;43.53;101236.27;1699697;81;21089;-78
2022/08/12 08:37:37;;;;;;;4.67;1.37;;;;;;;26.27;43.30;101237.34;1708474;81;21834;-78
2022/08/12 08:42:51;;;;;;;10.70;1.35;;;;;;;26.31;42.45;101234.40;1683184;82;20943;-78
2022/08/12 08:45:17;;;;;;;2.70;1.20;;;;;;;26.37;42.36;101228.44;1719710;81;20926;-78
2022/08/12 08:47:47;;;;;;;4.37;2.05;;;;;;;26.39;42.09;101226.30;1710610;80;20884;-79
2022/08/12 08:50:16;;;;;;;2.52;1.20;;;;;;;26.43;41.83;101221.41;1725383;80;21923;-79
2022/08/12 08:52:43;;;;;;;2.33;1.20;;;;;;;26.50;41.68;101229.42;1727879;79;20968;-78
2022/08/12 08:55:12;;;;;;;4.55;1.32;;;;;;;26.64;41.35;101223.84;1732270;79;21018;-79
2022/08/12 08:57:49;;;;;;;4.22;1.95;;;;;;;26.52;40.86;101225.91;1718503;80;28912;-82
2022/08/12 09:00:19;;;;;;;3.15;1.22;;;;;;;26.42;40.82;101229.35;1711125;79;21030;-82
2022/08/12 09:02:45;;;;;;;5.60;1.65;;;;;;;26.44;40.58;101233.19;1719665;80;21880;-83
2022/08/12 09:05:12;;;;;;;13.48;1.67;;;;;;;26.37;40.42;101222.97;1709670;81;21046;-77
2022/08/12 09:07:48;;;;;;;3.50;1.20;;;;;;;26.42;40.50;101221.68;1716060;81;21077;-78
2022/08/12 09:10:18;;;;;;;7.00;1.52;;;;;;;26.46;40.33;101227.73;1733130;79;21093;-78
2022/08/12 09:15:30;;;;;;;3.15;1.57;;;;;;;26.60;40.39;101222.16;1723288;80;21830;-77
2022/08/12 09:17:58;;;;;;;10.48;1.70;;;;;;;26.61;40.29;101221.09;1701114;80;20945;-77
2022/08/12 09:20:32;;;;;;;9.27;1.40;;;;;;;26.62;40.11;101222.75;1713657;80;21047;-77
2022/08/12 09:23:00;;;;;;;4.75;1.50;;;;;;;26.61;40.13;101221.62;1682031;82;21045;-77
2022/08/12 09:25:30;;;;;;;17.73;2.72;;;;;;;26.68;40.13;101220.35;1678558;82;21770;-77
2022/08/12 09:27:55;;;;;;;9.45;2.65;;;;;;;26.89;40.14;101228.81;1706000;80;21729;-77
2022/08/12 09:30:21;;;;;;;5.55;2.00;;;;;;;26.82;40.13;101223.55;1705336;80;21082;-77
2022/08/12 09:32:49;;;;;;;3.65;2.02;;;;;;;26.60;39.97;101221.36;1702157;82;21057;-77
2022/08/12 09:35:22;;;;;;;3.92;1.60;;;;;;;26.58;40.20;101218.87;1691656;81;21008;-77
2022/08/12 09:37:50;;;;;;;2.83;1.75;;;;;;;26.61;40.24;101214.78;1690127;80;21046;-77
2022/08/12 09:40:17;;;;;;;8.23;1.75;;;;;;;26.42;40.06;101212.11;1695791;80;21970;-77
2022/08/12 09:45:30;;;;;;;4.67;1.65;;;;;;;26.52;40.37;101214.42;1702551;81;20993;-73
2022/08/12 09:47:58;;;;;;;1.87;1.75;;;;;;;26.65;40.30;101204.98;1743169;80;21012;-73
2022/08/12 09:50:25;;;;;;;3.17;1.85;;;;;;;26.70;40.25;101205.05;1707924;79;21013;-74
2022/08/12 09:53:08;;;;;;;4.87;2.40;;;;;;;26.78;40.28;101205.95;1724574;79;22522;-74
2022/08/12 09:55:34;;;;;;;3.98;1.67;;;;;;;26.68;40.06;101190.78;1726560;80;21437;-73
2022/08/12 09:58:04;;;;;;;2.30;1.35;;;;;;;26.27;40.14;101195.78;1726953;80;21425;-74
2022/08/12 10:00:33;;;;;;;8.13;2.27;;;;;;;26.22;40.43;101192.97;1734537;81;21012;-73
2022/08/12 10:03:09;;;;;;;3.95;1.85;;;;;;;26.36;40.57;101184.38;1712128;80;20943;-73
2022/08/12 10:05:42;;;;;;;3.00;1.40;;;;;;;26.51;40.51;101190.05;1741919;80;21877;-73
2022/08/12 10:08:09;;;;;;;4.22;1.47;;;;;;;26.42;40.33;101186.12;1733663;80;20954;-75
2022/08/12 10:13:41;;;;;;;5.97;1.75;;;;;;;26.30;40.57;101176.13;1753475;80;21515;-74
2022/08/12 10:16:13;;;;;;;5.60;1.55;;;;;;;26.51;40.47;101179.09;1704297;81;20930;-75
2022/08/12 10:18:42;;;;;;;6.40;2.05;;;;;;;26.66;40.48;101187.48;1697173;81;21872;-74
2022/08/12 10:21:12;;;;;;;4.22;1.57;;;;;;;26.48;40.48;101176.88;1732244;81;21525;-74
2022/08/12 10:23:39;;;;;;;5.87;1.80;;;;;;;26.43;40.64;101175.44;1689984;80;21058;-74
2022/08/12 10:31:34;;;;;;;2.25;1.60;;;;;;;26.79;40.60;101154.23;1723878;80;21813;-80
2022/08/12 10:34:00;;;;;;;10.25;2.22;;;;;;;26.77;40.44;101160.52;1702162;82;20955;-82
2022/08/12 10:36:26;;;;;;;7.55;1.80;;;;;;;26.89;40.46;101157.09;1690259;82;20993;-82
2022/08/12 10:38:53;;;;;;;6.83;1.62;;;;;;;26.96;40.28;101163.19;1692382;82;21073;-82
2022/08/12 10:44:11;;;;;;;1.50;1.40;;;;;;;26.70;40.06;101153.88;1690483;82;22292;-82
2022/08/12 10:46:35;;;;;;;3.25;1.62;;;;;;;26.43;40.24;101150.28;1705564;81;20941;-82
2022/08/12 10:49:01;;;;;;;4.05;1.95;;;;;;;26.23;40.43;101150.88;1705281;82;21096;-81
2022/08/12 10:51:30;;;;;;;5.47;1.90;;;;;;;26.09;40.53;101152.30;1707269;81;21010;-81
2022/08/12 10:53:55;;;;;;;2.37;1.70;;;;;;;26.24;40.72;101149.80;1727683;79;21096;-82
2022/08/12 10:56:21;;;;;;;6.33;1.82;;;;;;;26.47;40.64;101145.13;1707080;81;21471;-81
2022/08/12 10:58:47;;;;;;;5.87;2.10;;;;;;;26.65;40.51;101145.61;1683461;82;20986;-81
2022/08/12 11:01:15;;;;;;;3.52;1.65;;;;;;;26.75;40.46;101145.70;1688302;82;21647;-82
2022/08/12 11:03:41;;;;;;;3.42;1.80;;;;;;;26.68;40.37;101133.31;1693840;80;21416;-81
2022/08/12 11:06:09;;;;;;;5.92;2.02;;;;;;;26.71;40.52;101133.62;1685571;81;21363;-81
2022/08/12 11:08:38;;;;;;;6.77;2.10;;;;;;;26.62;40.34;101128.87;1721068;80;22663;-82
2022/08/12 11:11:07;;;;;;;2.02;1.70;;;;;;;26.45;40.34;101130.89;1735586;79;21464;-82
2022/08/12 11:13:36;;;;;;;8.50;1.75;;;;;;;26.42;40.40;101134.14;1720944;81;21523;-82
2022/08/12 11:16:04;;;;;;;4.12;1.80;;;;;;;26.45;40.53;101128.15;1737058;79;21007;-81
2022/08/12 11:18:30;;;;;;;3.95;2.10;;;;;;;26.73;40.52;101122.42;1711425;80;21027;-80
2022/08/12 11:20:58;;;;;;;7.33;2.05;;;;;;;26.89;40.38;101117.94;1748643;80;22704;-82
2022/08/12 11:23:24;;;;;;;6.10;1.92;;;;;;;27.14;40.34;101118.98;1731414;79;20984;-81
2022/08/12 11:25:50;;;;;;;4.55;1.90;;;;;;;27.49;40.22;101116.25;1742565;80;21025;-82
2022/08/12 11:28:17;;;;;;;7.62;1.98;;;;;;;27.77;40.10;101117.23;1689421;81;21450;-81
2022/08/12 11:30:43;;;;;;;12.53;2.35;;;;;;;27.77;39.58;101113.12;1724968;80;20958;-82
2022/08/12 11:33:09;;;;;;;2.87;1.70;;;;;;;27.80;39.66;101111.22;1700214;81;21876;-82
2022/08/12 11:35:37;;;;;;;6.17;1.82;;;;;;;27.92;39.49;101111.84;1710916;81;21092;-82
2022/08/12 11:38:03;;;;;;;5.78;2.12;;;;;;;27.79;39.47;101106.84;1702160;82;21019;-82
2022/08/12 11:40:30;;;;;;;5.67;2.15;;;;;;;27.80;39.46;101101.63;1704427;81;21206;-82
2022/08/12 11:42:59;;;;;;;3.05;1.70;;;;;;;27.74;39.43;101098.59;1722514;81;21485;-82
2022/08/12 11:45:27;;;;;;;8.20;1.80;;;;;;;27.47;39.29;101098.72;1735195;80;21823;-81
2022/08/12 11:47:54;;;;;;;7.22;1.67;;;;;;;27.17;39.39;101107.50;1747823;80;20957;-80
2022/08/12 11:50:21;;;;;;;11.20;2.37;;;;;;;26.93;39.55;101098.00;1743430;80;21008;-81
2022/08/12 11:52:48;;;;;;;7.37;2.50;;;;;;;26.76;39.68;101098.09;1751614;80;21006;-81
2022/08/12 11:55:14;;;;;;;8.20;2.65;;;;;;;26.65;39.86;101098.25;1739976;80;21415;-81
2022/08/12 11:57:54;;;;;;;7.80;2.27;;;;;;;26.63;39.92;101094.96;1737728;81;22545;-82
2022/08/12 12:00:20;;;;;;;14.00;2.35;;;;;;;26.50;40.03;101090.71;1715415;81;20925;-81
2022/08/12 12:02:46;;;;;;;3.77;1.85;;;;;;;26.47;40.18;101086.30;1697480;81;21097;-81
2022/08/12 12:05:15;;;;;;;4.65;1.90;;;;;;;26.59;40.37;101074.13;1713632;80;20916;-82
2022/08/12 12:07:43;;;;;;;6.75;2.45;;;;;;;26.89;40.36;101068.66;1720852;82;21046;-81
2022/08/12 12:10:14;;;;;;;4.85;3.85;;;;;;;27.24;40.25;101061.53;1726707;81;21742;-81
2022/08/12 12:12:42;;;;;;;2.17;1.55;;;;;;;27.19;39.98;101067.00;1724476;81;20957;-82
2022/08/12 12:15:09;;;;;;;5.47;1.67;;;;;;;26.97;40.03;101063.53;1707883;81;21076;-81
2022/08/12 12:17:37;;;;;;;4.03;1.82;;;;;;;26.89;40.07;101065.38;1715073;81;21041;-79
2022/08/12 12:20:07;;;;;;;2.37;1.80;;;;;;;27.02;40.01;101064.92;1706471;80;21553;-81
2022/08/12 12:22:33;;;;;;;3.35;1.80;;;;;;;27.01;39.93;101055.62;1751761;80;22539;-81
2022/08/12 12:24:59;;;;;;;6.83;2.00;;;;;;;26.89;39.96;101061.27;1703413;82;39518;-81
2022/08/12 12:27:25;;;;;;;2.83;2.45;;;;;;;26.78;40.08;101054.02;1722642;82;20986;-81
2022/08/12 12:29:51;;;;;;;5.90;2.22;;;;;;;26.87;40.29;101059.89;1715743;81;21556;-81
2022/08/12 12:32:19;;;;;;;3.00;2.12;;;;;;;26.96;40.28;101056.40;1690880;81;21087;-81
2022/08/12 12:34:45;;;;;;;5.42;2.02;;;;;;;27.07;40.26;101045.81;1693039;81;21768;-81
2022/08/12 12:37:12;;;;;;;3.83;2.02;;;;;;;27.19;40.06;101047.83;1706848;81;20982;-81
2022/08/12 12:39:39;;;;;;;5.62;1.62;;;;;;;27.14;40.01;101043.67;1688086;80;20910;-82
2022/08/12 12:42:05;;;;;;;6.55;1.82;;;;;;;27.24;40.00;101046.47;1706203;82;21165;-81
2022/08/12 12:44:32;;;;;;;3.15;1.92;;;;;;;27.42;39.92;101043.84;1699059;81;21441;-82
2022/08/12 12:46:58;;;;;;;5.78;2.12;;;;;;;27.55;39.88;101045.33;1689243;82;22481;-81
2022/08/12 12:49:24;;;;;;;3.33;1.62;;;;;;;27.75;39.75;101051.73;1703558;82;20978;-80
2022/08/12 12:51:50;;;;;;;10.43;2.70;;;;;;;27.85;39.43;101049.56;1678246;83;21048;-81
2022/08/12 12:54:16;;;;;;;2.75;2.20;;;;;;;27.90;39.28;101036.43;1686295;82;21035;-81
2022/08/12 12:56:43;;;;;;;3.72;2.02;;;;;;;28.01;39.15;101038.09;1709049;81;21002;-81
2022/08/12 12:59:09;;;;;;;13.53;2.27;;;;;;;27.96;38.78;101030.69;1736153;81;21987;-81
2022/08/12 13:01:37;;;;;;;4.72;2.00;;;;;;;27.99;38.90;101026.03;1719499;81;21393;-81
2022/08/12 13:04:06;;;;;;;3.10;1.80;;;;;;;27.83;38.77;101028.46;1740897;81;21018;-81
2022/08/12 13:06:31;;;;;;;2.70;2.20;;;;;;;27.78;38.67;101041.59;1699255;82;21466;-82
2022/08/12 13:08:58;;;;;;;4.12;1.87;;;;;;;27.62;38.51;101037.69;1696128;82;21476;-81
2022/08/12 13:11:24;;;;;;;5.47;2.15;;;;;;;27.59;38.65;101029.44;1704102;82;22008;-82
2022/08/12 13:13:52;;;;;;;5.50;2.80;;;;;;;27.76;38.68;101021.03;1682715;82;21003;-82